createdAt,value
2022-12-01T00:00:57.238Z,6.60
2022-12-01T00:03:24.178Z,6.60
2022-12-01T00:05:50.890Z,6.60
2022-12-01T00:08:19.699Z,6.60
2022-12-01T00:10:46.939Z,6.60
2022-12-01T00:13:13.641Z,6.60
2022-12-01T00:15:40.356Z,6.60
2022-12-01T00:18:06.995Z,6.60
2022-12-01T00:20:33.629Z,6.60
2022-12-01T00:23:00.367Z,6.60
2022-12-01T00:25:27.047Z,6.60
2022-12-01T00:27:53.729Z,6.60
2022-12-01T00:30:20.489Z,6.60
2022-12-01T00:32:47.122Z,6.70
2022-12-01T00:35:13.735Z,6.70
2022-12-01T00:37:40.389Z,6.70
2022-12-01T00:40:07.024Z,6.70
2022-12-01T00:42:33.841Z,6.70
2022-12-01T00:45:00.517Z,6.70
2022-12-01T00:47:27.165Z,6.70
2022-12-01T00:49:54.207Z,6.70
2022-12-01T00:52:20.860Z,6.70
2022-12-01T00:54:47.579Z,6.70
2022-12-01T00:57:14.288Z,6.60
2022-12-01T00:59:41.247Z,6.70
2022-12-01T01:02:07.890Z,6.60
2022-12-01T01:04:34.557Z,6.60
2022-12-01T01:07:01.221Z,6.60
2022-12-01T01:09:28.020Z,6.60
2022-12-01T01:11:54.696Z,6.60
2022-12-01T01:14:21.490Z,6.60
2022-12-01T01:16:48.729Z,6.50
2022-12-01T01:19:15.450Z,6.50
2022-12-01T01:21:42.228Z,6.50
2022-12-01T01:24:09.094Z,6.50
2022-12-01T01:26:37.058Z,6.50
2022-12-01T01:29:03.797Z,6.40
2022-12-01T01:31:30.580Z,6.30
2022-12-01T01:33:57.328Z,6.30
2022-12-01T01:36:24.368Z,6.20
2022-12-01T01:38:55.268Z,6.10
2022-12-01T01:41:21.947Z,6.10
2022-12-01T01:43:48.718Z,6.00
2022-12-01T01:46:15.499Z,5.90
2022-12-01T01:48:42.296Z,5.90
2022-12-01T01:51:09.178Z,6.00
2022-12-01T01:53:35.887Z,5.90
2022-12-01T01:56:03.260Z,5.90
2022-12-01T01:58:29.955Z,5.90
2022-12-01T02:00:56.648Z,5.80
2022-12-01T02:03:23.575Z,5.80
2022-12-01T02:05:50.205Z,5.70
2022-12-01T02:08:16.830Z,5.70
2022-12-01T02:10:43.545Z,5.70
2022-12-01T02:13:10.229Z,5.70
2022-12-01T02:15:36.874Z,5.60
2022-12-01T02:18:03.514Z,5.60
2022-12-01T02:20:30.204Z,5.60
2022-12-01T02:22:56.892Z,5.50
2022-12-01T02:25:23.610Z,5.40
2022-12-01T02:27:50.429Z,5.40
2022-12-01T02:30:17.114Z,5.40
2022-12-01T02:32:43.794Z,5.30
2022-12-01T02:35:10.458Z,5.30
2022-12-01T02:37:37.185Z,5.20
2022-12-01T02:40:03.917Z,5.20
2022-12-01T02:42:49.753Z,5.20
2022-12-01T02:45:16.667Z,5.20
2022-12-01T02:47:43.350Z,5.20
2022-12-01T02:50:10.046Z,5.20
2022-12-01T02:52:36.700Z,5.30
2022-12-01T02:55:03.837Z,5.30
2022-12-01T02:57:30.574Z,5.30
2022-12-01T02:59:57.226Z,5.30
2022-12-01T03:02:24.748Z,5.30
2022-12-01T03:04:51.686Z,5.40
2022-12-01T03:07:19.307Z,5.40
2022-12-01T03:09:46.286Z,5.40
2022-12-01T03:12:13.194Z,5.40
2022-12-01T03:14:39.962Z,5.40
2022-12-01T03:17:06.790Z,5.40
2022-12-01T03:19:33.675Z,5.50
2022-12-01T03:22:00.404Z,5.40
2022-12-01T03:24:27.179Z,5.40
2022-12-01T03:26:55.564Z,5.50
2022-12-01T03:29:22.236Z,5.50
2022-12-01T03:31:49.283Z,5.50
2022-12-01T03:34:15.965Z,5.60
2022-12-01T03:36:42.645Z,5.60
2022-12-01T03:39:09.270Z,5.60
2022-12-01T03:41:35.989Z,5.60
2022-12-01T03:44:02.703Z,5.60
2022-12-01T03:46:29.500Z,5.60
2022-12-01T03:48:56.608Z,5.70
2022-12-01T03:51:23.255Z,5.70
2022-12-01T03:53:49.989Z,5.70
2022-12-01T03:56:16.669Z,5.70
2022-12-01T03:58:43.562Z,5.70
2022-12-01T04:01:10.240Z,5.70
2022-12-01T04:03:37.013Z,5.70
2022-12-01T04:06:03.716Z,5.70
2022-12-01T04:08:30.997Z,5.70
2022-12-01T04:10:57.739Z,5.70
2022-12-01T04:13:25.638Z,5.80
2022-12-01T04:15:52.435Z,5.80
2022-12-01T04:18:19.291Z,5.70
2022-12-01T04:20:45.932Z,5.70
2022-12-01T04:23:32.562Z,5.80
2022-12-01T04:25:59.238Z,5.80
2022-12-01T04:28:25.885Z,5.80
2022-12-01T04:30:52.614Z,5.80
2022-12-01T04:33:19.366Z,5.80
2022-12-01T04:35:45.997Z,5.80
2022-12-01T04:38:12.692Z,5.80
2022-12-01T04:40:39.341Z,5.80
2022-12-01T04:43:06.014Z,5.90
2022-12-01T04:45:32.644Z,5.80
2022-12-01T04:47:59.305Z,5.80
2022-12-01T04:50:25.938Z,5.80
2022-12-01T04:52:54.208Z,5.80
2022-12-01T04:55:22.592Z,5.80
2022-12-01T04:57:49.231Z,5.80
2022-12-01T05:00:15.921Z,5.70
2022-12-01T05:02:43.732Z,5.60
2022-12-01T05:05:10.398Z,5.70
2022-12-01T05:07:37.078Z,5.60
2022-12-01T05:10:03.807Z,5.50
2022-12-01T05:12:30.451Z,5.50
2022-12-01T05:14:57.179Z,5.50
2022-12-01T05:17:23.855Z,5.50
2022-12-01T05:20:09.406Z,5.50
2022-12-01T05:23:03.851Z,5.50
2022-12-01T05:25:22.767Z,5.50
2022-12-01T05:27:49.435Z,5.40
2022-12-01T05:30:16.087Z,5.50
2022-12-01T05:32:42.744Z,5.50
2022-12-01T05:35:09.421Z,5.50
2022-12-01T05:37:36.092Z,5.50
2022-12-01T05:40:02.768Z,5.50
2022-12-01T05:42:29.467Z,5.60
2022-12-01T05:44:56.174Z,5.60
2022-12-01T05:47:23.908Z,5.60
2022-12-01T05:49:51.083Z,5.60
2022-12-01T05:52:18.059Z,5.60
2022-12-01T05:54:44.795Z,5.60
2022-12-01T05:57:11.417Z,5.60
2022-12-01T05:59:38.269Z,5.60
2022-12-01T06:02:05.023Z,5.60
2022-12-01T06:04:31.745Z,5.60
2022-12-01T06:06:58.350Z,5.70
2022-12-01T06:09:25.289Z,5.60
2022-12-01T06:11:52.753Z,5.60
2022-12-01T06:14:19.546Z,5.60
2022-12-01T06:16:46.175Z,5.60
2022-12-01T06:19:12.881Z,5.50
2022-12-01T06:21:39.555Z,5.50
2022-12-01T06:24:06.201Z,5.50
2022-12-01T06:26:32.845Z,5.40
2022-12-01T06:28:59.540Z,5.30
2022-12-01T06:31:26.501Z,5.40
2022-12-01T06:33:53.206Z,5.50
2022-12-01T06:36:19.830Z,5.60
2022-12-01T06:38:46.572Z,5.50
2022-12-01T06:41:13.258Z,5.60
2022-12-01T06:43:39.928Z,5.60
2022-12-01T06:46:06.757Z,5.50
2022-12-01T06:48:34.497Z,5.40
2022-12-01T06:51:01.311Z,5.30
2022-12-01T06:53:28.813Z,5.20
2022-12-01T06:55:55.458Z,5.10
2022-12-01T06:58:22.505Z,5.10
2022-12-01T07:00:52.221Z,5.10
2022-12-01T07:03:19.185Z,5.00
2022-12-01T07:05:45.954Z,4.90
2022-12-01T07:08:12.628Z,4.80
2022-12-01T07:10:39.340Z,4.70
2022-12-01T07:13:06.075Z,4.70
2022-12-01T07:15:32.738Z,4.60
2022-12-01T07:17:59.444Z,4.60
2022-12-01T07:20:26.083Z,4.50
2022-12-01T07:22:52.910Z,4.50
2022-12-01T07:25:19.607Z,4.50
2022-12-01T07:27:46.492Z,4.40
2022-12-01T07:30:13.173Z,4.40
2022-12-01T07:32:40.905Z,4.40
2022-12-01T07:35:07.800Z,4.40
2022-12-01T07:37:34.543Z,4.40
2022-12-01T07:40:01.324Z,4.30
2022-12-01T07:42:28.023Z,4.30
2022-12-01T07:44:54.742Z,4.40
2022-12-01T07:47:21.499Z,4.40
2022-12-01T07:49:48.577Z,4.40
2022-12-01T07:52:15.462Z,4.40
2022-12-01T07:54:42.223Z,4.40
2022-12-01T07:57:08.946Z,4.40
2022-12-01T07:59:35.660Z,4.40
2022-12-01T08:02:02.392Z,4.40
2022-12-01T08:04:29.160Z,4.40
2022-12-01T08:06:55.836Z,4.40
2022-12-01T08:09:22.608Z,4.40
2022-12-01T08:11:49.386Z,4.40
2022-12-01T08:14:16.179Z,4.50
2022-12-01T08:16:42.902Z,4.50
2022-12-01T08:19:09.669Z,4.50
2022-12-01T08:21:37.638Z,4.50
2022-12-01T08:24:04.301Z,4.50
2022-12-01T08:26:31.030Z,4.50
2022-12-01T08:28:58.143Z,4.60
2022-12-01T08:31:24.954Z,4.70
2022-12-01T08:33:51.798Z,4.70
2022-12-01T08:36:18.639Z,4.80
2022-12-01T08:38:45.360Z,4.80
2022-12-01T08:41:12.114Z,4.90
2022-12-01T08:46:27.203Z,5.20
2022-12-01T08:48:55.182Z,5.50
2022-12-01T08:51:21.951Z,5.60
2022-12-01T08:53:48.889Z,5.70
2022-12-01T08:56:16.307Z,5.80
2022-12-01T08:58:43.050Z,5.80
2022-12-01T09:01:09.719Z,5.90
2022-12-01T09:03:36.337Z,6.00
2022-12-01T09:06:03.025Z,6.00
2022-12-01T09:08:32.879Z,6.10
2022-12-01T09:10:59.645Z,6.10
2022-12-01T09:13:26.537Z,6.20
2022-12-01T09:15:53.279Z,6.20
2022-12-01T09:18:19.933Z,6.20
2022-12-01T09:20:47.254Z,6.20
2022-12-01T09:23:13.945Z,6.20
2022-12-01T09:25:40.984Z,6.10
2022-12-01T09:28:07.761Z,6.30
2022-12-01T09:30:34.542Z,6.20
2022-12-01T09:33:01.274Z,6.30
2022-12-01T09:35:27.930Z,6.20
2022-12-01T09:37:54.644Z,6.20
2022-12-01T09:40:21.357Z,6.20
2022-12-01T09:42:48.092Z,6.30
2022-12-01T09:45:14.771Z,6.30
2022-12-01T09:47:42.680Z,6.30
2022-12-01T09:50:09.427Z,6.30
2022-12-01T09:52:36.060Z,6.30
2022-12-01T09:55:02.777Z,6.40
2022-12-01T09:57:29.608Z,6.40
2022-12-01T09:59:56.297Z,6.50
2022-12-01T10:02:23.053Z,6.50
2022-12-01T10:04:52.169Z,6.60
2022-12-01T10:07:19.045Z,6.70
2022-12-01T10:09:45.733Z,6.70
2022-12-01T10:12:12.469Z,6.70
2022-12-01T10:14:39.219Z,6.70
2022-12-01T10:17:06.330Z,6.80
2022-12-01T10:19:33.116Z,6.90
2022-12-01T10:21:59.863Z,7.00
2022-12-01T10:24:26.541Z,7.00
2022-12-01T10:26:53.265Z,7.10
2022-12-01T10:29:20.094Z,7.10
2022-12-01T10:31:46.764Z,7.30
2022-12-01T10:34:13.457Z,7.40
2022-12-01T10:36:40.148Z,7.50
2022-12-01T10:39:09.363Z,7.60
2022-12-01T10:41:36.190Z,7.80
2022-12-01T10:44:02.871Z,7.90
2022-12-01T10:46:29.548Z,8.00
2022-12-01T10:48:56.274Z,8.10
2022-12-01T10:51:22.993Z,8.10
2022-12-01T10:53:49.684Z,8.10
2022-12-01T10:56:16.406Z,8.00
2022-12-01T10:58:43.147Z,8.00
2022-12-01T11:01:09.941Z,8.10
2022-12-01T11:03:37.496Z,8.00
2022-12-01T11:06:04.277Z,8.10
2022-12-01T11:08:30.976Z,8.00
2022-12-01T11:10:57.627Z,8.00
2022-12-01T11:13:24.356Z,8.00
2022-12-01T11:15:51.062Z,8.00
2022-12-01T11:18:17.805Z,8.00
2022-12-01T11:20:44.576Z,8.00
2022-12-01T11:23:12.469Z,8.00
2022-12-01T11:25:39.090Z,8.10
2022-12-01T11:28:05.713Z,8.10
2022-12-01T11:30:32.366Z,8.10
2022-12-01T11:32:59.095Z,8.10
2022-12-01T11:35:25.865Z,8.20
2022-12-01T11:38:21.113Z,8.30
2022-12-01T11:40:39.219Z,8.30
2022-12-01T11:43:05.967Z,8.20
2022-12-01T11:45:32.735Z,8.30
2022-12-01T11:47:59.556Z,8.30
2022-12-01T11:50:26.214Z,8.20
2022-12-01T11:52:52.885Z,8.30
2022-12-01T11:55:20.284Z,8.40
2022-12-01T11:57:46.995Z,8.30
2022-12-01T12:00:13.834Z,8.40
2022-12-01T12:02:40.574Z,8.40
2022-12-01T12:05:07.299Z,8.50
2022-12-01T12:07:34.094Z,8.60
2022-12-01T12:10:00.780Z,8.70
2022-12-01T12:12:27.493Z,8.80
2022-12-01T12:14:54.171Z,8.70
2022-12-01T12:17:20.945Z,8.80
2022-12-01T12:20:07.177Z,8.80
2022-12-01T12:22:34.367Z,8.90
2022-12-01T12:25:01.006Z,9.00
2022-12-01T12:27:27.704Z,8.90
2022-12-01T12:29:54.383Z,8.90
2022-12-01T12:32:21.063Z,8.80
2022-12-01T12:34:47.749Z,8.70
2022-12-01T12:37:14.386Z,8.80
2022-12-01T12:39:41.465Z,8.90
2022-12-01T12:42:08.439Z,9.00
2022-12-01T12:44:37.227Z,9.00
2022-12-01T12:47:04.504Z,8.90
2022-12-01T12:49:31.148Z,8.90
2022-12-01T12:51:58.088Z,8.90
2022-12-01T12:54:24.816Z,8.90
2022-12-01T12:56:51.670Z,8.80
2022-12-01T12:59:18.266Z,8.80
2022-12-01T13:01:44.928Z,8.80
2022-12-01T13:04:11.584Z,8.90
2022-12-01T13:06:38.308Z,8.80
2022-12-01T13:09:05.173Z,8.80
2022-12-01T13:11:31.855Z,8.80
2022-12-01T13:13:58.560Z,8.80
2022-12-01T13:16:25.282Z,8.90
2022-12-01T13:18:51.940Z,8.90
2022-12-01T13:21:19.093Z,8.90
2022-12-01T13:23:45.840Z,9.10
2022-12-01T13:26:12.482Z,9.20
2022-12-01T13:28:39.180Z,9.30
2022-12-01T13:31:05.900Z,9.50
2022-12-01T13:33:32.704Z,9.60
2022-12-01T13:36:22.999Z,9.80
2022-12-01T13:38:46.017Z,9.80
2022-12-01T13:41:12.700Z,9.80
2022-12-01T13:43:39.359Z,9.70
2022-12-01T13:46:06.031Z,9.80
2022-12-01T13:48:33.142Z,9.80
2022-12-01T13:50:59.842Z,9.80
2022-12-01T13:53:26.471Z,9.70
2022-12-01T13:55:53.194Z,9.70
2022-12-01T13:58:20.053Z,9.70
2022-12-01T14:00:46.769Z,9.60
2022-12-01T14:03:13.453Z,9.60
2022-12-01T14:05:40.260Z,9.60
2022-12-01T14:08:07.027Z,9.60
2022-12-01T14:10:33.781Z,9.60
2022-12-01T14:13:00.695Z,9.60
2022-12-01T14:15:27.789Z,9.50
2022-12-01T14:17:54.408Z,9.50
2022-12-01T14:20:21.527Z,9.40
2022-12-01T14:22:49.447Z,9.40
2022-12-01T14:25:16.059Z,9.30
2022-12-01T14:27:42.769Z,9.40
2022-12-01T14:30:09.442Z,9.40
2022-12-01T14:32:36.081Z,9.40
2022-12-01T14:35:02.750Z,9.40
2022-12-01T14:37:29.452Z,9.40
2022-12-01T14:39:56.440Z,9.40
2022-12-01T14:42:41.996Z,9.30
2022-12-01T14:45:08.725Z,9.30
2022-12-01T14:47:35.417Z,9.40
2022-12-01T14:50:02.078Z,9.30
2022-12-01T14:52:28.738Z,9.30
2022-12-01T14:54:55.407Z,9.30
2022-12-01T14:57:22.639Z,9.30
2022-12-01T14:59:49.271Z,9.30
2022-12-01T15:02:16.583Z,9.30
2022-12-01T15:04:43.261Z,9.30
2022-12-01T15:07:10.072Z,9.30
2022-12-01T15:09:36.828Z,9.30
2022-12-01T15:12:03.649Z,9.20
2022-12-01T15:14:30.356Z,9.20
2022-12-01T15:16:57.083Z,9.20
2022-12-01T15:19:23.836Z,9.20
2022-12-01T15:21:51.874Z,9.10
2022-12-01T15:24:18.505Z,9.10
2022-12-01T15:26:45.102Z,9.10
2022-12-01T15:29:11.766Z,9.20
2022-12-01T15:31:38.505Z,9.10
2022-12-01T15:34:05.198Z,9.10
2022-12-01T15:36:31.797Z,9.00
2022-12-01T15:39:06.767Z,9.00
2022-12-01T15:41:33.812Z,9.00
2022-12-01T15:44:05.675Z,9.00
2022-12-01T15:46:32.326Z,9.00
2022-12-01T15:48:58.994Z,9.00
2022-12-01T15:51:25.648Z,9.00
2022-12-01T15:53:53.889Z,9.00
2022-12-01T15:56:20.692Z,8.90
2022-12-01T15:58:47.426Z,8.80
2022-12-01T16:01:14.167Z,8.80
2022-12-01T16:03:40.837Z,8.80
2022-12-01T16:06:07.484Z,8.70
2022-12-01T16:08:34.242Z,8.50
2022-12-01T16:11:00.912Z,8.40
2022-12-01T16:13:27.551Z,8.40
2022-12-01T16:15:55.198Z,8.30
2022-12-01T16:18:21.836Z,8.20
2022-12-01T16:20:48.506Z,8.10
2022-12-01T16:23:15.222Z,8.00
2022-12-01T16:25:43.506Z,7.90
2022-12-01T16:28:10.190Z,7.80
2022-12-01T16:30:36.975Z,7.70
2022-12-01T16:33:03.699Z,7.50
2022-12-01T16:35:30.594Z,7.50
2022-12-01T16:37:57.259Z,7.40
2022-12-01T16:40:23.916Z,7.40
2022-12-01T16:42:50.630Z,7.40
2022-12-01T16:45:17.578Z,7.30
2022-12-01T16:47:46.596Z,7.20
2022-12-01T16:50:13.214Z,7.20
2022-12-01T16:52:44.629Z,7.20
2022-12-01T16:55:12.131Z,7.10
2022-12-01T16:57:38.961Z,7.00
2022-12-01T17:00:05.605Z,7.00
2022-12-01T17:02:32.402Z,7.00
2022-12-01T17:04:59.048Z,7.00
2022-12-01T17:07:25.793Z,6.90
2022-12-01T17:09:52.407Z,6.90
2022-12-01T17:12:19.006Z,6.80
2022-12-01T17:14:45.676Z,6.80
2022-12-01T17:17:12.290Z,6.80
2022-12-01T17:19:38.910Z,6.70
2022-12-01T17:22:05.886Z,6.70
2022-12-01T17:24:32.508Z,6.70
2022-12-01T17:26:59.288Z,6.70
2022-12-01T17:29:26.453Z,6.60
2022-12-01T17:31:53.060Z,6.60
2022-12-01T17:34:19.678Z,6.60
2022-12-01T17:36:46.358Z,6.50
2022-12-01T17:39:12.972Z,6.40
2022-12-01T17:41:41.016Z,6.40
2022-12-01T17:44:07.666Z,6.50
2022-12-01T17:46:34.363Z,6.50
2022-12-01T17:49:01.072Z,6.50
2022-12-01T17:51:27.679Z,6.60
2022-12-01T17:53:54.315Z,6.60
2022-12-01T17:56:20.955Z,6.60
2022-12-01T17:58:47.645Z,6.60
2022-12-01T18:01:14.788Z,6.60
2022-12-01T18:03:41.604Z,6.60
2022-12-01T18:06:08.344Z,6.60
2022-12-01T18:08:34.947Z,6.60
2022-12-01T18:11:02.283Z,6.60
2022-12-01T18:13:29.041Z,6.60
2022-12-01T18:15:55.713Z,6.60
2022-12-01T18:18:22.439Z,6.70
2022-12-01T18:20:49.069Z,6.70
2022-12-01T18:23:15.679Z,6.70
2022-12-01T18:25:42.305Z,6.70
2022-12-01T18:28:11.093Z,6.70
2022-12-01T18:30:41.075Z,6.70
2022-12-01T18:33:12.301Z,6.70
2022-12-01T18:35:38.904Z,6.70
2022-12-01T18:38:05.553Z,6.70
2022-12-01T18:40:32.206Z,6.80
2022-12-01T18:42:58.810Z,6.70
2022-12-01T18:45:25.434Z,6.70
2022-12-01T18:47:52.511Z,6.80
2022-12-01T18:50:19.172Z,6.80
2022-12-01T18:52:45.798Z,6.80
2022-12-01T18:55:12.516Z,6.70
2022-12-01T18:57:39.219Z,6.70
2022-12-01T19:00:06.209Z,6.70
2022-12-01T19:02:33.041Z,6.80
2022-12-01T19:04:59.894Z,6.80
2022-12-01T19:07:29.701Z,6.70
2022-12-01T19:09:56.869Z,6.80
2022-12-01T19:12:23.557Z,6.80
2022-12-01T19:14:53.136Z,6.80
2022-12-01T19:17:19.941Z,6.70
2022-12-01T19:19:46.658Z,6.70
2022-12-01T19:22:13.397Z,6.70
2022-12-01T19:24:40.072Z,6.70
2022-12-01T19:27:06.790Z,6.70
2022-12-01T19:29:33.496Z,6.70
2022-12-01T19:32:00.426Z,6.60
2022-12-01T19:34:27.322Z,6.60
2022-12-01T19:36:54.222Z,6.60
2022-12-01T19:39:20.958Z,6.60
2022-12-01T19:41:47.586Z,6.60
2022-12-01T19:44:14.238Z,6.60
2022-12-01T19:46:40.996Z,6.60
2022-12-01T19:49:07.600Z,6.60
2022-12-01T19:51:37.332Z,6.60
2022-12-01T19:54:04.014Z,6.70
2022-12-01T19:56:31.311Z,6.70
2022-12-01T19:58:58.536Z,6.60
2022-12-01T20:01:25.236Z,6.60
2022-12-01T20:03:51.951Z,6.60
2022-12-01T20:06:18.683Z,6.60
2022-12-01T20:08:45.349Z,6.60
2022-12-01T20:11:12.085Z,6.60
2022-12-01T20:13:38.740Z,6.60
2022-12-01T20:16:05.514Z,6.50
2022-12-01T20:18:32.237Z,6.50
2022-12-01T20:20:58.955Z,6.60
2022-12-01T20:23:25.694Z,6.60
2022-12-01T20:25:52.293Z,6.50
2022-12-01T20:28:18.953Z,6.50
2022-12-01T20:30:46.650Z,6.60
2022-12-01T20:33:13.357Z,6.50
2022-12-01T20:35:39.964Z,6.50
2022-12-01T20:38:06.662Z,6.50
2022-12-01T20:40:33.305Z,6.50
2022-12-01T20:42:59.921Z,6.50
2022-12-01T20:45:26.715Z,6.50
2022-12-01T20:47:53.427Z,6.50
2022-12-01T20:50:20.321Z,6.50
2022-12-01T20:52:47.056Z,6.50
2022-12-01T20:55:13.666Z,6.50
2022-12-01T20:57:40.370Z,6.50
2022-12-01T21:00:07.021Z,6.50
2022-12-01T21:02:33.754Z,6.40
2022-12-01T21:05:02.906Z,6.50
2022-12-01T21:07:29.662Z,6.50
2022-12-01T21:09:56.412Z,6.50
2022-12-01T21:12:41.767Z,6.40
2022-12-01T21:15:08.480Z,6.40
2022-12-01T21:17:35.206Z,6.40
2022-12-01T21:20:01.942Z,6.40
2022-12-01T21:22:28.701Z,6.40
2022-12-01T21:24:55.529Z,6.40
2022-12-01T21:27:22.228Z,6.40
2022-12-01T21:29:48.857Z,6.30
2022-12-01T21:32:15.557Z,6.40
2022-12-01T21:34:42.282Z,6.30
2022-12-01T21:37:08.922Z,6.30
2022-12-01T21:39:35.573Z,6.30
2022-12-01T21:42:02.296Z,6.30
2022-12-01T21:44:29.477Z,6.30
2022-12-01T21:46:56.089Z,6.30
2022-12-01T21:49:23.495Z,6.30
2022-12-01T21:51:50.171Z,6.30
2022-12-01T21:54:16.896Z,6.30
2022-12-01T21:56:45.996Z,6.30
2022-12-01T21:59:12.604Z,6.30
2022-12-01T22:01:39.321Z,6.30
2022-12-01T22:04:05.997Z,6.30
2022-12-01T22:06:32.628Z,6.30
2022-12-01T22:08:59.322Z,6.30
2022-12-01T22:11:26.013Z,6.20
2022-12-01T22:13:52.997Z,6.20
2022-12-01T22:16:19.711Z,6.30
2022-12-01T22:18:46.519Z,6.30
2022-12-01T22:21:13.204Z,6.30
2022-12-01T22:23:39.901Z,6.30
2022-12-01T22:26:09.220Z,6.30
2022-12-01T22:28:36.021Z,6.30
2022-12-01T22:31:02.860Z,6.40
2022-12-01T22:33:29.627Z,6.30
2022-12-01T22:35:56.310Z,6.30
2022-12-01T22:38:22.980Z,6.30
2022-12-01T22:40:55.494Z,6.30
2022-12-01T22:43:22.147Z,6.30
2022-12-01T22:45:48.785Z,6.30
2022-12-01T22:48:15.456Z,6.30
2022-12-01T22:50:42.642Z,6.30
2022-12-01T22:53:11.062Z,6.30
2022-12-01T22:55:37.768Z,6.30
2022-12-01T22:58:04.412Z,6.30
2022-12-01T23:00:31.205Z,6.30
2022-12-01T23:02:57.986Z,6.30
2022-12-01T23:05:24.841Z,6.30
2022-12-01T23:07:51.627Z,6.30
2022-12-01T23:10:18.352Z,6.30
2022-12-01T23:12:45.085Z,6.30
2022-12-01T23:15:11.803Z,6.30
2022-12-01T23:17:39.303Z,6.30
2022-12-01T23:20:06.107Z,6.30
2022-12-01T23:22:32.740Z,6.30
2022-12-01T23:24:59.423Z,6.30
2022-12-01T23:27:26.153Z,6.30
2022-12-01T23:29:52.773Z,6.20
2022-12-01T23:32:19.380Z,6.30
2022-12-01T23:34:46.032Z,6.30
2022-12-01T23:37:12.661Z,6.20
2022-12-01T23:39:39.300Z,6.20
2022-12-01T23:42:05.951Z,6.20
2022-12-01T23:44:32.609Z,6.10
2022-12-01T23:46:59.311Z,6.20
2022-12-01T23:49:25.949Z,6.10
2022-12-01T23:51:52.607Z,6.10
2022-12-01T23:54:19.411Z,6.10
2022-12-01T23:56:46.087Z,6.10
2022-12-01T23:59:12.751Z,6.10
